This is the latest recevied weather packets stored in our database for station/object KE5WTH-14. If no packets are shown the sender has not sent any weather packets the latest 10 day(s).
| Time | Temp. | Humidity | Pressure | Rain* | Wind** | Luminosity | Snow |
|---|---|---|---|---|---|---|---|
| 1778261315 | 22.78° C | 67% | 1012.2 hPa | 0 mm | - | 702 W/m² | - |
| 1778261253 | 22.78° C | 67% | 1012.3 hPa | 0 mm | - | 649 W/m² | - |
| 1778261191 | 22.78° C | 68% | 1012.3 hPa | 0 mm | - | 672 W/m² | - |
| 1778261132 | 22.78° C | 66% | 1012.4 hPa | 0 mm | - | 761 W/m² | - |
| 1778261066 | 22.78° C | 65% | 1012.5 hPa | 0 mm | - | 1037 W/m² | - |
| 1778261003 | 22.78° C | 65% | 1012.5 hPa | 0 mm | - | 1037 W/m² | - |
| 1778260943 | 22.78° C | 67% | 1012.5 hPa | 0 mm | - | 665 W/m² | - |
| 1778260882 | 22.78° C | 69% | 1012.6 hPa | 0 mm | - | 610 W/m² | - |
| 1778260819 | 22.78° C | 69% | 1012.6 hPa | 0 mm | - | 615 W/m² | - |
| 1778260759 | 22.78° C | 68% | 1012.7 hPa | 0 mm | - | 640 W/m² | - |
| 1778260695 | 22.78° C | 69% | 1012.7 hPa | 0 mm | - | 666 W/m² | - |
| 1778260636 | 22.78° C | 69% | 1012.7 hPa | 0 mm | - | 753 W/m² | - |
| 1778260577 | 22.78° C | 69% | 1012.7 hPa | 0 mm | - | 679 W/m² | - |
| 1778260556 | 19.44° C | 82% | 1013.8 hPa | 0 mm | - | 325 W/m² | - |
| 1778260550 | 19.44° C | 82% | 1013.9 hPa | 0 mm | - | 332 W/m² | - |
| 1778260527 | 22.22° C | 67% | 1012.8 hPa | 0 mm | - | 719 W/m² | - |
| 1778260494 | 22.78° C | 72% | 1012.8 hPa | 0 mm | - | 686 W/m² | - |
| 1778260461 | 22.22° C | 71% | 1012.9 hPa | 0 mm | - | 884 W/m² | - |
| 1778260431 | 22.22° C | 69% | 1012.8 hPa | 0 mm | - | 884 W/m² | - |
| 1778260400 | 22.22° C | 69% | 1012.8 hPa | 0 mm | - | 498 W/m² | - |
| 1778260368 | 22.22° C | 68% | 1012.9 hPa | 0 mm | - | 505 W/m² | - |
| 1778260337 | 22.22° C | 70% | 1012.9 hPa | 0 mm | - | 513 W/m² | - |
| 1778260302 | 22.22° C | 70% | 1012.9 hPa | 0 mm | - | 510 W/m² | - |
| 1778260269 | 21.67° C | 71% | 1013 hPa | 0 mm | - | 496 W/m² | - |
| 1778260243 | 21.67° C | 71% | 1013 hPa | 0 mm | - | 382 W/m² | - |
* Rain latest hour (hover to see other rain measurements)
** Current wind speed in m/s (hover to see current wind gust speed)